Time;durP1;ratioP1;P1;durP2;ratioP2;P2;SDS_P1;SDS_P2;PMS_P1;PMS_P2;Temp;Humidity;BMP_temperature;BMP_pressure;BME280_temperature;BME280_humidity;BME280_pressure;Samples;Min_cycle;Max_cycle;Signal;HPM_P1;HPM_P2
2024/01/24 00:02:17;;;;;;;18.77;4.68;;;;;;;;;;5055545;28;23543;-69
2024/01/24 00:04:44;;;;;;;19.00;6.15;;;;;;;;;;5042761;28;20396;-68
2024/01/24 00:07:10;;;;;;;18.70;4.70;;;;;;;;;;5058415;28;20299;-68
2024/01/24 00:09:36;;;;;;;17.42;5.15;;;;;;;;;;5052004;28;20028;-68
2024/01/24 00:12:02;;;;;;;20.10;5.63;;;;;;;;;;5060664;28;20126;-68
2024/01/24 00:14:29;;;;;;;17.17;4.50;;;;;;;;;;5053461;28;20089;-68
2024/01/24 00:16:55;;;;;;;24.73;6.40;;;;;;;;;;5040681;28;20603;-68
2024/01/24 00:19:21;;;;;;;19.38;4.72;;;;;;;;;;5054938;28;20504;-68
2024/01/24 00:21:47;;;;;;;22.90;4.53;;;;;;;;;;5054287;28;20059;-69
2024/01/24 00:24:13;;;;;;;19.77;4.15;;;;;;;;;;5056455;28;20021;-68
2024/01/24 00:26:39;;;;;;;17.38;4.75;;;;;;;;;;5037528;28;20040;-68
2024/01/24 00:29:05;;;;;;;22.55;4.95;;;;;;;;;;5032129;28;20032;-68
2024/01/24 00:31:32;;;;;;;16.95;5.05;;;;;;;;;;5050919;28;20405;-68
2024/01/24 00:33:58;;;;;;;18.95;6.15;;;;;;;;;;5052016;28;20179;-69
2024/01/24 00:36:24;;;;;;;18.55;4.75;;;;;;;;;;5037465;28;20127;-68
2024/01/24 00:38:50;;;;;;;6.78;4.22;;;;;;;;;;5057864;28;20511;-68
2024/01/24 00:41:16;;;;;;;19.90;5.28;;;;;;;;;;5052343;28;20564;-68
2024/01/24 00:43:43;;;;;;;9.75;3.35;;;;;;;;;;5051494;28;20029;-68
2024/01/24 00:46:09;;;;;;;17.77;4.00;;;;;;;;;;5043933;28;20024;-68
2024/01/24 00:48:35;;;;;;;18.55;6.18;;;;;;;;;;5037364;28;20122;-68
2024/01/24 00:51:02;;;;;;;21.48;4.70;;;;;;;;;;5050035;28;20057;-68
2024/01/24 00:53:29;;;;;;;20.33;5.82;;;;;;;;;;5058859;28;20440;-69
2024/01/24 00:55:56;;;;;;;14.65;4.32;;;;;;;;;;5048035;28;20056;-68
2024/01/24 00:58:23;;;;;;;14.30;4.45;;;;;;;;;;5047230;28;20572;-68
2024/01/24 01:00:50;;;;;;;17.27;4.57;;;;;;;;;;5051338;28;20470;-68
2024/01/24 01:03:16;;;;;;;19.00;4.30;;;;;;;;;;5050691;28;20021;-68
2024/01/24 01:05:42;;;;;;;15.10;4.28;;;;;;;;;;5058349;28;20035;-68
2024/01/24 01:08:09;;;;;;;12.98;3.78;;;;;;;;;;5057712;28;20035;-68
2024/01/24 01:10:35;;;;;;;18.48;4.07;;;;;;;;;;5057882;28;20472;-68
2024/01/24 01:13:01;;;;;;;13.98;5.75;;;;;;;;;;5051588;28;20072;-68
2024/01/24 01:15:27;;;;;;;16.17;4.75;;;;;;;;;;5040383;28;20039;-68
2024/01/24 01:17:53;;;;;;;10.93;3.92;;;;;;;;;;5050422;28;20491;-68
2024/01/24 01:20:29;;;;;;;11.52;4.55;;;;;;;;;;5049897;28;20036;-68
2024/01/24 01:22:56;;;;;;;14.60;5.28;;;;;;;;;;5047113;28;20682;-67
2024/01/24 01:25:22;;;;;;;14.90;4.10;;;;;;;;;;5033735;28;20040;-68
2024/01/24 01:27:48;;;;;;;14.65;3.83;;;;;;;;;;5054738;28;20040;-68
2024/01/24 01:30:14;;;;;;;16.00;4.55;;;;;;;;;;5051644;28;20488;-68
2024/01/24 01:32:41;;;;;;;14.90;5.63;;;;;;;;;;5059250;28;20714;-67
2024/01/24 01:35:08;;;;;;;16.05;4.82;;;;;;;;;;5048359;28;20028;-68
2024/01/24 01:37:34;;;;;;;22.73;5.85;;;;;;;;;;5053334;28;20091;-68
2024/01/24 01:40:00;;;;;;;22.73;5.70;;;;;;;;;;5049873;28;20028;-68
2024/01/24 01:42:26;;;;;;;13.63;4.13;;;;;;;;;;5048666;28;20488;-68
2024/01/24 01:44:52;;;;;;;16.50;3.97;;;;;;;;;;5049698;28;20024;-68
2024/01/24 01:47:19;;;;;;;20.65;4.38;;;;;;;;;;5034628;28;20618;-68
2024/01/24 01:49:45;;;;;;;18.65;4.97;;;;;;;;;;5032276;28;20058;-68
2024/01/24 01:52:12;;;;;;;9.35;3.42;;;;;;;;;;5053143;28;20036;-68
2024/01/24 01:54:42;;;;;;;26.00;6.43;;;;;;;;;;5057397;28;20039;-69
2024/01/24 01:57:11;;;;;;;12.70;3.70;;;;;;;;;;5038586;28;20028;-68
2024/01/24 01:59:37;;;;;;;17.50;4.10;;;;;;;;;;5052077;28;20052;-68
2024/01/24 02:02:04;;;;;;;16.08;4.72;;;;;;;;;;5054818;28;20025;-68
2024/01/24 02:04:30;;;;;;;19.33;4.20;;;;;;;;;;5053974;28;20041;-68
2024/01/24 02:06:57;;;;;;;12.75;4.03;;;;;;;;;;5048711;28;20032;-68
2024/01/24 02:09:23;;;;;;;18.30;4.88;;;;;;;;;;5051406;28;20326;-67
2024/01/24 02:11:50;;;;;;;10.95;3.95;;;;;;;;;;5048214;28;20105;-68
2024/01/24 02:14:16;;;;;;;10.90;3.85;;;;;;;;;;5052633;28;20032;-68
2024/01/24 02:16:43;;;;;;;12.38;4.63;;;;;;;;;;5053382;28;20472;-67
2024/01/24 02:19:09;;;;;;;16.33;4.68;;;;;;;;;;5053532;28;20028;-68
2024/01/24 02:21:35;;;;;;;8.68;3.17;;;;;;;;;;5049636;28;20024;-68
2024/01/24 02:24:02;;;;;;;16.58;3.85;;;;;;;;;;5048592;28;20033;-68
2024/01/24 02:26:28;;;;;;;16.15;5.15;;;;;;;;;;5047698;28;20543;-68
2024/01/24 02:28:54;;;;;;;22.17;4.95;;;;;;;;;;5051112;28;20545;-68
2024/01/24 02:31:20;;;;;;;18.05;4.70;;;;;;;;;;5037020;28;20060;-67
2024/01/24 02:33:46;;;;;;;13.52;5.20;;;;;;;;;;5050547;28;20044;-68
2024/01/24 02:36:14;;;;;;;11.30;4.47;;;;;;;;;;5053614;28;20024;-68
2024/01/24 02:38:41;;;;;;;18.25;4.20;;;;;;;;;;5017775;28;20036;-68
2024/01/24 02:41:07;;;;;;;18.92;5.90;;;;;;;;;;5029553;28;20060;-69
2024/01/24 02:43:34;;;;;;;16.83;3.92;;;;;;;;;;5049918;28;20388;-68
2024/01/24 02:46:00;;;;;;;19.92;6.38;;;;;;;;;;5047056;28;20467;-68
2024/01/24 02:48:27;;;;;;;16.50;4.85;;;;;;;;;;5046621;28;20025;-68
2024/01/24 02:50:53;;;;;;;11.05;4.78;;;;;;;;;;5047320;28;20063;-68
2024/01/24 02:53:19;;;;;;;13.77;4.85;;;;;;;;;;5051617;28;20040;-67
2024/01/24 02:55:46;;;;;;;7.68;3.40;;;;;;;;;;5054338;28;20040;-68
2024/01/24 02:58:12;;;;;;;9.20;3.60;;;;;;;;;;5051018;28;20618;-68
2024/01/24 03:00:38;;;;;;;14.30;3.65;;;;;;;;;;5046637;28;20032;-68
2024/01/24 03:03:04;;;;;;;17.90;4.20;;;;;;;;;;5050440;28;20024;-68
2024/01/24 03:05:31;;;;;;;9.63;3.58;;;;;;;;;;5048532;28;20113;-67
2024/01/24 03:07:58;;;;;;;19.05;5.40;;;;;;;;;;5047085;28;20032;-68
2024/01/24 03:10:27;;;;;;;10.00;3.65;;;;;;;;;;5053659;28;20035;-68
2024/01/24 03:12:53;;;;;;;14.45;5.00;;;;;;;;;;5054100;28;20056;-67
2024/01/24 03:15:20;;;;;;;12.88;4.75;;;;;;;;;;5053301;28;20111;-68
2024/01/24 03:17:46;;;;;;;10.77;2.92;;;;;;;;;;5050882;28;20068;-67
2024/01/24 03:20:14;;;;;;;26.02;5.47;;;;;;;;;;5055942;28;20029;-68
2024/01/24 03:22:40;;;;;;;19.90;4.55;;;;;;;;;;5058962;28;20084;-68
2024/01/24 03:25:07;;;;;;;12.82;3.75;;;;;;;;;;5054497;28;20036;-68
2024/01/24 03:27:33;;;;;;;14.05;4.50;;;;;;;;;;5039224;28;20017;-68
2024/01/24 03:29:59;;;;;;;18.70;4.38;;;;;;;;;;5034578;28;20025;-68
2024/01/24 03:32:26;;;;;;;14.45;5.03;;;;;;;;;;5035563;28;20033;-68
2024/01/24 03:34:53;;;;;;;15.18;3.58;;;;;;;;;;5055880;28;20044;-68
2024/01/24 03:37:20;;;;;;;16.70;4.40;;;;;;;;;;5035396;28;20029;-68
2024/01/24 03:39:46;;;;;;;15.35;4.85;;;;;;;;;;5042678;28;20447;-67
2024/01/24 03:42:12;;;;;;;17.95;5.20;;;;;;;;;;5052851;28;20032;-68
2024/01/24 03:44:39;;;;;;;13.00;3.95;;;;;;;;;;5048844;28;20017;-69
2024/01/24 03:47:05;;;;;;;14.68;5.15;;;;;;;;;;5056907;28;20020;-68
2024/01/24 03:49:32;;;;;;;12.57;4.85;;;;;;;;;;5048427;28;20029;-68
2024/01/24 03:51:58;;;;;;;17.83;4.50;;;;;;;;;;5047693;28;20384;-68
2024/01/24 03:54:24;;;;;;;19.92;5.03;;;;;;;;;;5040872;28;20048;-67
2024/01/24 03:56:50;;;;;;;17.13;4.68;;;;;;;;;;5059078;28;20323;-67
2024/01/24 03:59:16;;;;;;;13.95;4.00;;;;;;;;;;5057287;28;20251;-68
2024/01/24 04:01:42;;;;;;;16.33;6.25;;;;;;;;;;5057436;28;20514;-67
2024/01/24 04:04:09;;;;;;;11.25;4.47;;;;;;;;;;5049055;28;20029;-68
2024/01/24 04:06:38;;;;;;;17.45;5.80;;;;;;;;;;5057826;28;20324;-67
2024/01/24 04:09:04;;;;;;;11.48;5.80;;;;;;;;;;5058040;28;20504;-68
2024/01/24 04:11:30;;;;;;;22.92;5.63;;;;;;;;;;5042824;28;20035;-67
2024/01/24 04:13:56;;;;;;;15.98;5.38;;;;;;;;;;5047843;28;20029;-67
2024/01/24 04:16:23;;;;;;;19.17;5.80;;;;;;;;;;5054364;28;20563;-68
2024/01/24 04:18:50;;;;;;;19.73;5.05;;;;;;;;;;5051754;28;20029;-67
2024/01/24 04:21:16;;;;;;;12.77;4.78;;;;;;;;;;5051060;28;20497;-67
2024/01/24 04:23:44;;;;;;;14.10;3.63;;;;;;;;;;5061774;28;20028;-68
2024/01/24 04:26:10;;;;;;;14.75;4.00;;;;;;;;;;5060282;28;20029;-67
2024/01/24 04:28:36;;;;;;;17.63;3.90;;;;;;;;;;5059852;28;20799;-68
2024/01/24 04:31:04;;;;;;;17.23;3.90;;;;;;;;;;5031104;28;20544;-68
2024/01/24 04:33:30;;;;;;;14.73;3.95;;;;;;;;;;5048539;28;20036;-68
2024/01/24 04:35:56;;;;;;;16.85;3.78;;;;;;;;;;5052183;28;20087;-68
2024/01/24 04:38:22;;;;;;;21.98;4.38;;;;;;;;;;5034743;28;20036;-67
2024/01/24 04:40:48;;;;;;;14.50;4.18;;;;;;;;;;5055651;28;20042;-68
2024/01/24 04:43:15;;;;;;;13.38;3.92;;;;;;;;;;5050358;28;20443;-67
2024/01/24 04:45:41;;;;;;;8.32;3.55;;;;;;;;;;5048125;28;20107;-67
2024/01/24 04:48:07;;;;;;;12.85;3.47;;;;;;;;;;5049402;28;20094;-68
2024/01/24 04:50:33;;;;;;;10.43;3.13;;;;;;;;;;5048939;28;20039;-68
2024/01/24 04:53:00;;;;;;;11.88;4.85;;;;;;;;;;5055105;28;20543;-68
2024/01/24 04:55:26;;;;;;;8.23;3.40;;;;;;;;;;5059396;28;20082;-68
2024/01/24 04:57:52;;;;;;;9.80;3.35;;;;;;;;;;5051992;28;20045;-67
2024/01/24 05:00:19;;;;;;;25.38;5.40;;;;;;;;;;5051269;28;20362;-67
2024/01/24 05:02:45;;;;;;;14.05;3.60;;;;;;;;;;5059525;28;20492;-68
2024/01/24 05:05:11;;;;;;;13.27;3.63;;;;;;;;;;5055500;28;20028;-67
2024/01/24 05:07:37;;;;;;;12.60;3.03;;;;;;;;;;5051202;28;20031;-67
2024/01/24 05:10:04;;;;;;;19.13;3.85;;;;;;;;;;5044591;28;20033;-68
2024/01/24 05:12:31;;;;;;;9.98;2.90;;;;;;;;;;5048254;28;20036;-68
2024/01/24 05:14:57;;;;;;;17.88;4.20;;;;;;;;;;5056907;28;20075;-68
2024/01/24 05:17:23;;;;;;;15.73;3.80;;;;;;;;;;5050193;28;20035;-68
2024/01/24 05:19:49;;;;;;;7.65;3.78;;;;;;;;;;5040474;28;20025;-67
2024/01/24 05:22:16;;;;;;;12.40;4.03;;;;;;;;;;5051669;28;20031;-68
2024/01/24 05:24:45;;;;;;;12.10;3.10;;;;;;;;;;5051815;28;20024;-68
2024/01/24 05:27:12;;;;;;;20.85;3.35;;;;;;;;;;5029549;28;20028;-68
2024/01/24 05:29:39;;;;;;;11.00;3.42;;;;;;;;;;5048657;28;20381;-68
2024/01/24 05:32:05;;;;;;;10.68;2.63;;;;;;;;;;5046438;28;20025;-68
2024/01/24 05:34:31;;;;;;;11.10;2.97;;;;;;;;;;5057782;28;20381;-68
2024/01/24 05:36:58;;;;;;;9.63;2.67;;;;;;;;;;5057044;28;20033;-68
2024/01/24 05:39:24;;;;;;;10.50;3.38;;;;;;;;;;5051198;28;20119;-68
2024/01/24 05:41:51;;;;;;;11.55;3.55;;;;;;;;;;5035142;28;20029;-67
2024/01/24 05:44:17;;;;;;;7.90;3.15;;;;;;;;;;5053707;28;20025;-67
2024/01/24 05:46:43;;;;;;;12.65;3.40;;;;;;;;;;5052441;28;20025;-67
2024/01/24 05:49:09;;;;;;;7.72;2.42;;;;;;;;;;5052508;28;20064;-67
2024/01/24 05:51:35;;;;;;;8.57;3.35;;;;;;;;;;5050955;28;20040;-67
2024/01/24 05:54:01;;;;;;;12.02;3.58;;;;;;;;;;5054304;28;20496;-67
2024/01/24 05:56:27;;;;;;;9.55;3.40;;;;;;;;;;5038916;28;20125;-67
2024/01/24 05:58:54;;;;;;;13.60;3.30;;;;;;;;;;5056662;28;20782;-67
2024/01/24 06:01:21;;;;;;;10.40;2.97;;;;;;;;;;5052932;28;20045;-67
2024/01/24 06:03:49;;;;;;;9.70;3.33;;;;;;;;;;5051994;28;20477;-67
2024/01/24 06:06:15;;;;;;;10.63;2.67;;;;;;;;;;5052002;28;20029;-67
2024/01/24 06:08:43;;;;;;;8.57;2.97;;;;;;;;;;5052792;28;20024;-67
2024/01/24 06:11:10;;;;;;;11.18;5.00;;;;;;;;;;5052758;28;20033;-68
2024/01/24 06:13:36;;;;;;;12.45;3.30;;;;;;;;;;5032458;28;20456;-67
2024/01/24 06:16:02;;;;;;;9.13;2.58;;;;;;;;;;5055807;28;20020;-67
2024/01/24 06:18:28;;;;;;;16.73;3.20;;;;;;;;;;5054804;28;20493;-67
2024/01/24 06:20:54;;;;;;;8.00;2.72;;;;;;;;;;5056443;28;20035;-67
2024/01/24 06:23:20;;;;;;;10.52;3.03;;;;;;;;;;5057303;28;20574;-67
2024/01/24 06:25:46;;;;;;;14.73;3.20;;;;;;;;;;5058119;28;20032;-67
2024/01/24 06:28:13;;;;;;;8.90;2.17;;;;;;;;;;5053249;28;20544;-67
2024/01/24 06:30:39;;;;;;;9.70;3.38;;;;;;;;;;5057686;28;20107;-67
2024/01/24 06:33:05;;;;;;;10.68;3.30;;;;;;;;;;5046341;28;20485;-67
2024/01/24 06:35:31;;;;;;;13.05;3.20;;;;;;;;;;5054986;28;20039;-67
2024/01/24 06:37:57;;;;;;;5.50;2.60;;;;;;;;;;5056578;28;20047;-68
2024/01/24 06:40:24;;;;;;;11.13;3.30;;;;;;;;;;5048148;28;20033;-67
2024/01/24 06:42:50;;;;;;;11.95;2.92;;;;;;;;;;5052696;28;20108;-67
2024/01/24 06:45:16;;;;;;;23.75;4.68;;;;;;;;;;5037845;28;20408;-67
2024/01/24 06:47:43;;;;;;;6.22;3.72;;;;;;;;;;5054870;28;20047;-67
2024/01/24 06:50:13;;;;;;;8.18;2.90;;;;;;;;;;5055714;28;20033;-67
2024/01/24 06:52:40;;;;;;;15.48;3.80;;;;;;;;;;5053347;28;20099;-67
2024/01/24 06:55:06;;;;;;;11.98;3.50;;;;;;;;;;5042181;28;20097;-68
2024/01/24 06:57:32;;;;;;;20.98;3.00;;;;;;;;;;5058263;28;20538;-67
2024/01/24 06:59:59;;;;;;;18.48;4.00;;;;;;;;;;5053003;28;20021;-67
2024/01/24 07:02:26;;;;;;;12.05;3.80;;;;;;;;;;5051479;28;20496;-67
2024/01/24 07:04:52;;;;;;;20.13;3.60;;;;;;;;;;5057217;28;20029;-67
2024/01/24 07:07:18;;;;;;;20.35;4.10;;;;;;;;;;5040044;28;20025;-67
2024/01/24 07:09:44;;;;;;;16.40;2.83;;;;;;;;;;5052115;28;20533;-67
2024/01/24 07:12:12;;;;;;;18.00;3.22;;;;;;;;;;5053581;28;20391;-67
2024/01/24 07:14:38;;;;;;;14.38;3.97;;;;;;;;;;5042643;28;20033;-67
2024/01/24 07:17:05;;;;;;;14.40;3.63;;;;;;;;;;5038521;28;20120;-67
2024/01/24 07:19:31;;;;;;;16.33;3.83;;;;;;;;;;5056746;28;20507;-67
2024/01/24 07:21:57;;;;;;;24.00;4.22;;;;;;;;;;5048113;28;20115;-67
2024/01/24 07:24:23;;;;;;;18.17;4.20;;;;;;;;;;5057187;28;20025;-67
2024/01/24 07:26:50;;;;;;;18.13;4.05;;;;;;;;;;5052161;28;20069;-67
2024/01/24 07:29:16;;;;;;;11.27;4.25;;;;;;;;;;5055409;28;20029;-67
2024/01/24 07:31:42;;;;;;;6.75;3.40;;;;;;;;;;5048314;28;20033;-67
2024/01/24 07:34:08;;;;;;;13.13;4.00;;;;;;;;;;5053095;28;20360;-67
2024/01/24 07:36:34;;;;;;;10.32;2.72;;;;;;;;;;5051747;28;20029;-67
2024/01/24 07:39:02;;;;;;;12.05;3.72;;;;;;;;;;5058645;28;20032;-67
2024/01/24 07:41:28;;;;;;;14.13;4.50;;;;;;;;;;5049337;28;20358;-66
2024/01/24 07:43:54;;;;;;;13.18;4.13;;;;;;;;;;5044883;28;20158;-67
2024/01/24 07:46:21;;;;;;;5.30;3.17;;;;;;;;;;5046312;28;20037;-67
2024/01/24 07:48:47;;;;;;;13.82;3.80;;;;;;;;;;5046776;28;20151;-67
2024/01/24 07:51:14;;;;;;;8.63;3.10;;;;;;;;;;5049083;28;20495;-67
2024/01/24 07:53:42;;;;;;;14.20;3.90;;;;;;;;;;5038411;28;20036;-67
2024/01/24 07:56:08;;;;;;;14.00;3.55;;;;;;;;;;5034383;28;20505;-68
2024/01/24 07:58:34;;;;;;;13.63;3.72;;;;;;;;;;5038903;28;20575;-66
2024/01/24 08:01:00;;;;;;;21.48;4.85;;;;;;;;;;5046178;28;20029;-66
2024/01/24 08:03:26;;;;;;;15.38;4.07;;;;;;;;;;5047659;28;20063;-65
2024/01/24 08:05:52;;;;;;;23.40;4.70;;;;;;;;;;5051086;28;20024;-67
2024/01/24 08:08:18;;;;;;;13.88;3.90;;;;;;;;;;5041533;28;20036;-66
2024/01/24 08:10:45;;;;;;;13.38;3.33;;;;;;;;;;5045384;28;20064;-67
2024/01/24 08:13:11;;;;;;;14.55;4.00;;;;;;;;;;5051596;28;21060;-66
2024/01/24 08:15:37;;;;;;;21.77;4.03;;;;;;;;;;5049116;28;20032;-65
2024/01/24 08:18:03;;;;;;;18.20;3.72;;;;;;;;;;5053067;28;20823;-64
2024/01/24 08:20:29;;;;;;;19.00;4.72;;;;;;;;;;5052179;28;20033;-65
2024/01/24 08:22:55;;;;;;;13.80;3.58;;;;;;;;;;5035162;28;20070;-66
2024/01/24 08:25:22;;;;;;;9.00;4.28;;;;;;;;;;5051869;28;20086;-65
2024/01/24 08:27:48;;;;;;;8.57;4.13;;;;;;;;;;5048928;28;20374;-65
2024/01/24 08:30:15;;;;;;;17.00;3.97;;;;;;;;;;5046919;28;20059;-64
2024/01/24 08:32:42;;;;;;;13.02;3.88;;;;;;;;;;5046740;28;20093;-70
2024/01/24 08:35:08;;;;;;;11.15;3.40;;;;;;;;;;5046794;28;20386;-64
2024/01/24 08:37:34;;;;;;;13.30;3.40;;;;;;;;;;5052682;28;20074;-65
2024/01/24 08:40:00;;;;;;;3.70;2.38;;;;;;;;;;5054853;28;20140;-66
2024/01/24 08:42:27;;;;;;;18.13;4.47;;;;;;;;;;5050111;28;20505;-65
2024/01/24 08:44:53;;;;;;;8.73;3.15;;;;;;;;;;5047642;28;20066;-65
2024/01/24 08:47:19;;;;;;;12.70;3.67;;;;;;;;;;5050887;28;20027;-65
2024/01/24 08:49:45;;;;;;;18.52;4.75;;;;;;;;;;5046683;28;20132;-64
2024/01/24 08:52:11;;;;;;;19.33;4.65;;;;;;;;;;5046880;28;20558;-64
2024/01/24 08:54:37;;;;;;;23.40;4.25;;;;;;;;;;5040047;28;20039;-65
2024/01/24 08:57:04;;;;;;;14.52;3.58;;;;;;;;;;5049102;28;20033;-65
2024/01/24 08:59:30;;;;;;;11.13;4.35;;;;;;;;;;5075655;28;20521;-65
2024/01/24 09:01:57;;;;;;;19.02;5.18;;;;;;;;;;5062556;28;20092;-64
2024/01/24 09:04:23;;;;;;;15.85;3.63;;;;;;;;;;5079509;28;20086;-65
2024/01/24 09:06:49;;;;;;;14.88;4.15;;;;;;;;;;5077539;28;20012;-65
2024/01/24 09:09:15;;;;;;;14.15;4.40;;;;;;;;;;5059280;28;20028;-65
2024/01/24 09:11:41;;;;;;;20.23;4.47;;;;;;;;;;5061551;28;20035;-64
2024/01/24 09:14:08;;;;;;;15.65;3.72;;;;;;;;;;5078570;28;20085;-64
2024/01/24 09:16:34;;;;;;;11.55;3.85;;;;;;;;;;5078415;28;20035;-64
2024/01/24 09:19:00;;;;;;;16.90;4.38;;;;;;;;;;5077559;28;20467;-64
2024/01/24 09:21:26;;;;;;;15.30;4.43;;;;;;;;;;5076907;28;20412;-64
2024/01/24 09:23:52;;;;;;;9.43;4.10;;;;;;;;;;5077527;28;20483;-65
2024/01/24 09:26:19;;;;;;;9.57;3.35;;;;;;;;;;5078606;28;20085;-65
2024/01/24 09:28:45;;;;;;;10.95;2.95;;;;;;;;;;5078893;28;20024;-65
2024/01/24 09:31:11;;;;;;;21.92;4.30;;;;;;;;;;5072772;28;20052;-65
2024/01/24 09:33:37;;;;;;;16.85;3.47;;;;;;;;;;5070734;28;20596;-65
2024/01/24 09:36:04;;;;;;;22.05;4.60;;;;;;;;;;5070976;28;20032;-65
2024/01/24 09:38:30;;;;;;;21.27;3.80;;;;;;;;;;5069452;28;20039;-65
2024/01/24 09:41:01;;;;;;;13.75;3.80;;;;;;;;;;5072012;28;20411;-65
2024/01/24 09:43:31;;;;;;;20.50;4.50;;;;;;;;;;5070957;28;20111;-65
2024/01/24 09:45:57;;;;;;;11.48;4.57;;;;;;;;;;5061094;28;20031;-67
2024/01/24 09:48:24;;;;;;;16.58;4.15;;;;;;;;;;5077033;28;20032;-66
2024/01/24 09:50:50;;;;;;;23.85;4.82;;;;;;;;;;5076903;28;20034;-66
2024/01/24 09:53:20;;;;;;;11.18;3.25;;;;;;;;;;5077274;28;20407;-67
2024/01/24 09:55:46;;;;;;;17.52;3.50;;;;;;;;;;5057822;28;20020;-67
2024/01/24 09:58:13;;;;;;;21.52;5.18;;;;;;;;;;5074198;28;20068;-67
2024/01/24 10:00:39;;;;;;;21.13;3.88;;;;;;;;;;5078074;28;20492;-67
2024/01/24 10:03:06;;;;;;;12.85;3.28;;;;;;;;;;5076111;28;20060;-67
2024/01/24 10:05:33;;;;;;;9.13;2.80;;;;;;;;;;5076603;28;20032;-68
2024/01/24 10:07:59;;;;;;;19.25;4.15;;;;;;;;;;5056930;28;20464;-67
2024/01/24 10:10:26;;;;;;;9.35;2.88;;;;;;;;;;5079970;28;20422;-67
2024/01/24 10:12:52;;;;;;;9.35;3.80;;;;;;;;;;5075473;28;20024;-67
2024/01/24 10:15:20;;;;;;;12.30;3.90;;;;;;;;;;5061530;28;20028;-67
2024/01/24 10:17:47;;;;;;;9.27;4.13;;;;;;;;;;5075902;28;20466;-67
2024/01/24 10:20:13;;;;;;;24.33;4.28;;;;;;;;;;5077776;28;20340;-67
2024/01/24 10:22:39;;;;;;;16.48;5.45;;;;;;;;;;5075342;28;20063;-67
2024/01/24 10:25:06;;;;;;;14.10;4.68;;;;;;;;;;5080052;28;20032;-67
2024/01/24 10:27:37;;;;;;;22.60;4.38;;;;;;;;;;5074375;28;21701;-66
2024/01/24 10:30:03;;;;;;;20.92;4.57;;;;;;;;;;5060183;28;20612;-67
2024/01/24 10:32:32;;;;;;;22.08;4.15;;;;;;;;;;5065623;28;20517;-65
2024/01/24 10:34:59;;;;;;;18.65;4.22;;;;;;;;;;5062978;28;20036;-66
2024/01/24 10:37:25;;;;;;;15.75;3.90;;;;;;;;;;5076087;28;20032;-69
2024/01/24 10:39:53;;;;;;;10.82;5.05;;;;;;;;;;5086273;28;20024;-69
2024/01/24 10:42:20;;;;;;;11.57;4.45;;;;;;;;;;5045959;28;20570;-69
2024/01/24 10:44:51;;;;;;;20.02;3.88;;;;;;;;;;5084413;28;20395;-69
2024/01/24 10:47:18;;;;;;;14.15;3.83;;;;;;;;;;5080144;28;20020;-69
2024/01/24 10:49:44;;;;;;;7.55;3.28;;;;;;;;;;5074616;28;20051;-69
2024/01/24 10:52:11;;;;;;;20.95;4.75;;;;;;;;;;5075422;28;20039;-69
2024/01/24 10:54:38;;;;;;;26.30;4.20;;;;;;;;;;5078479;28;20644;-69
2024/01/24 10:57:07;;;;;;;12.15;4.10;;;;;;;;;;5059292;28;20594;-69
2024/01/24 10:59:34;;;;;;;12.75;4.13;;;;;;;;;;5049013;28;20094;-69
2024/01/24 11:02:00;;;;;;;14.75;3.42;;;;;;;;;;5046893;28;20040;-70
2024/01/24 11:04:27;;;;;;;20.85;4.22;;;;;;;;;;5048279;28;20521;-69
2024/01/24 11:07:01;;;;;;;15.77;3.17;;;;;;;;;;5041647;28;20032;-69
2024/01/24 11:09:31;;;;;;;11.68;3.50;;;;;;;;;;5047092;28;20090;-69
2024/01/24 11:11:58;;;;;;;10.52;3.38;;;;;;;;;;5051131;28;20040;-69
2024/01/24 11:14:34;;;;;;;11.65;3.72;;;;;;;;;;5049143;28;20392;-69
2024/01/24 11:17:05;;;;;;;16.45;3.13;;;;;;;;;;5042692;28;20553;-69
2024/01/24 11:19:32;;;;;;;10.23;4.15;;;;;;;;;;5044914;28;20848;-68
2024/01/24 11:22:00;;;;;;;14.27;4.72;;;;;;;;;;5052037;28;20081;-68
2024/01/24 11:24:45;;;;;;;15.63;5.15;;;;;;;;;;5046856;28;20037;-65
2024/01/24 11:27:25;;;;;;;11.40;3.15;;;;;;;;;;5052092;28;20029;-68
2024/01/24 11:29:55;;;;;;;10.77;3.90;;;;;;;;;;5053983;28;20032;-66
2024/01/24 11:32:40;;;;;;;13.90;3.45;;;;;;;;;;5053083;28;20098;-67
2024/01/24 11:35:26;;;;;;;8.40;4.17;;;;;;;;;;5046484;28;20056;-68
2024/01/24 11:37:54;;;;;;;10.90;4.18;;;;;;;;;;5062793;28;20297;-65
2024/01/24 11:40:22;;;;;;;12.00;3.92;;;;;;;;;;5040066;28;20522;-70
2024/01/24 11:42:57;;;;;;;16.05;3.35;;;;;;;;;;5055451;28;20083;-67
2024/01/24 11:45:25;;;;;;;17.77;4.50;;;;;;;;;;5054780;28;20426;-66
2024/01/24 11:47:52;;;;;;;10.82;3.33;;;;;;;;;;5051343;28;20422;-67
2024/01/24 11:50:19;;;;;;;16.67;4.78;;;;;;;;;;5055169;28;20110;-67
2024/01/24 11:52:48;;;;;;;8.43;3.30;;;;;;;;;;5052969;28;20536;-66
2024/01/24 11:55:15;;;;;;;17.83;4.55;;;;;;;;;;5048147;28;20075;-66
2024/01/24 11:57:41;;;;;;;19.02;3.72;;;;;;;;;;5051270;28;20123;-68
2024/01/24 12:00:09;;;;;;;11.25;4.28;;;;;;;;;;5051853;28;20029;-67
2024/01/24 12:02:36;;;;;;;11.25;3.35;;;;;;;;;;5048287;28;20114;-67
2024/01/24 12:05:02;;;;;;;13.10;3.85;;;;;;;;;;5040738;28;20024;-66
2024/01/24 12:07:28;;;;;;;14.07;3.72;;;;;;;;;;5053551;28;20032;-66
2024/01/24 12:09:55;;;;;;;8.45;3.35;;;;;;;;;;5053612;28;20484;-66
2024/01/24 12:12:21;;;;;;;12.25;4.03;;;;;;;;;;5037997;28;20040;-66
2024/01/24 12:14:48;;;;;;;13.77;3.55;;;;;;;;;;5050274;28;20032;-66
2024/01/24 12:17:15;;;;;;;15.90;3.55;;;;;;;;;;5050813;28;20397;-66
2024/01/24 12:19:45;;;;;;;9.23;3.15;;;;;;;;;;5050398;28;20139;-66
2024/01/24 12:22:11;;;;;;;14.98;3.65;;;;;;;;;;5040796;28;20343;-66
2024/01/24 12:24:41;;;;;;;9.23;3.08;;;;;;;;;;5052910;28;20025;-68
2024/01/24 12:27:08;;;;;;;16.67;3.75;;;;;;;;;;5055336;28;20107;-66
2024/01/24 12:29:34;;;;;;;7.57;3.28;;;;;;;;;;5049156;28;20025;-67
2024/01/24 12:32:01;;;;;;;17.48;3.60;;;;;;;;;;5052670;28;20111;-66
2024/01/24 12:34:30;;;;;;;10.10;4.07;;;;;;;;;;5055190;28;20036;-67
2024/01/24 12:36:57;;;;;;;7.18;3.28;;;;;;;;;;5056273;28;20074;-67
2024/01/24 12:39:43;;;;;;;14.57;3.80;;;;;;;;;;5037322;28;20526;-66
2024/01/24 12:42:09;;;;;;;22.30;6.15;;;;;;;;;;5035493;28;20024;-66
2024/01/24 12:44:36;;;;;;;15.48;7.10;;;;;;;;;;5051146;28;20028;-67
2024/01/24 12:47:02;;;;;;;23.90;6.75;;;;;;;;;;5052760;28;20574;-67
2024/01/24 12:49:28;;;;;;;20.10;5.95;;;;;;;;;;5052464;28;20021;-67
2024/01/24 12:51:55;;;;;;;17.98;6.50;;;;;;;;;;5047124;28;20029;-67
2024/01/24 12:54:21;;;;;;;20.75;6.22;;;;;;;;;;5052850;28;20020;-67
2024/01/24 12:56:48;;;;;;;11.88;6.68;;;;;;;;;;5058847;28;20037;-67
2024/01/24 12:59:14;;;;;;;15.68;5.68;;;;;;;;;;5050224;28;20048;-67
2024/01/24 13:01:41;;;;;;;16.02;6.05;;;;;;;;;;5053642;28;20126;-66
2024/01/24 13:04:07;;;;;;;16.95;7.10;;;;;;;;;;5062415;28;20370;-67
2024/01/24 13:06:36;;;;;;;19.13;5.13;;;;;;;;;;5053874;28;20059;-67
2024/01/24 13:09:03;;;;;;;19.60;5.88;;;;;;;;;;5056313;28;20033;-67
2024/01/24 13:11:30;;;;;;;23.83;6.78;;;;;;;;;;5043053;28;20025;-67
2024/01/24 13:13:56;;;;;;;13.38;5.38;;;;;;;;;;5045415;28;20134;-67
2024/01/24 13:16:22;;;;;;;17.70;4.00;;;;;;;;;;5057038;28;20361;-68
2024/01/24 13:18:48;;;;;;;9.65;3.97;;;;;;;;;;5042033;28;20480;-67
2024/01/24 13:21:14;;;;;;;10.75;4.68;;;;;;;;;;5057955;28;20047;-66
2024/01/24 13:23:41;;;;;;;17.92;4.28;;;;;;;;;;5056558;28;20024;-67
2024/01/24 13:26:07;;;;;;;8.93;3.90;;;;;;;;;;5050539;28;20033;-67
2024/01/24 13:28:33;;;;;;;11.75;3.30;;;;;;;;;;5052339;28;20032;-67
2024/01/24 13:30:59;;;;;;;9.45;3.58;;;;;;;;;;5032279;28;20082;-67
2024/01/24 13:33:25;;;;;;;13.35;4.15;;;;;;;;;;5060198;28;20467;-67
2024/01/24 13:35:52;;;;;;;6.72;3.40;;;;;;;;;;5053936;28;20037;-67
2024/01/24 13:38:18;;;;;;;13.63;4.38;;;;;;;;;;5049742;28;20032;-67
2024/01/24 13:40:45;;;;;;;19.60;6.05;;;;;;;;;;5059863;28;20115;-66
2024/01/24 13:43:12;;;;;;;22.88;4.20;;;;;;;;;;5043288;28;20462;-67
2024/01/24 13:45:41;;;;;;;9.50;4.05;;;;;;;;;;5056338;28;20017;-67
2024/01/24 13:48:08;;;;;;;11.25;3.97;;;;;;;;;;5053117;28;20130;-66
2024/01/24 13:50:38;;;;;;;9.57;3.55;;;;;;;;;;5058722;28;20029;-70
2024/01/24 13:53:04;;;;;;;20.92;3.97;;;;;;;;;;5042301;28;20235;-70
2024/01/24 13:55:30;;;;;;;17.10;3.72;;;;;;;;;;5049584;28;20553;-71
2024/01/24 13:57:59;;;;;;;10.20;3.80;;;;;;;;;;5042438;28;20098;-70
2024/01/24 14:00:26;;;;;;;13.63;3.53;;;;;;;;;;5075469;28;20070;-70
2024/01/24 14:02:52;;;;;;;13.32;4.60;;;;;;;;;;5069641;28;20589;-70
2024/01/24 14:05:18;;;;;;;10.20;3.72;;;;;;;;;;5077404;28;20025;-70
2024/01/24 14:07:44;;;;;;;14.68;3.22;;;;;;;;;;5072916;28;20012;-70
2024/01/24 14:10:11;;;;;;;22.50;4.20;;;;;;;;;;5068845;28;20052;-70
2024/01/24 14:12:37;;;;;;;8.65;2.92;;;;;;;;;;5072305;28;20277;-70
2024/01/24 14:15:07;;;;;;;14.30;3.72;;;;;;;;;;5077067;28;20534;-70
2024/01/24 14:17:33;;;;;;;6.35;2.38;;;;;;;;;;5072797;28;20503;-70
2024/01/24 14:20:00;;;;;;;16.20;3.20;;;;;;;;;;5067175;28;20069;-70
2024/01/24 14:22:27;;;;;;;10.80;2.65;;;;;;;;;;5078104;28;20059;-71
2024/01/24 14:24:53;;;;;;;17.05;3.70;;;;;;;;;;5071662;28;20062;-69
2024/01/24 14:27:24;;;;;;;8.70;2.83;;;;;;;;;;5073410;28;20574;-71
2024/01/24 14:29:50;;;;;;;18.17;3.72;;;;;;;;;;5065990;28;20021;-70